createdAt,value
2018-09-07T00:00:16.732Z,0
2018-09-07T00:01:26.302Z,0
2018-09-07T00:02:35.870Z,0
2018-09-07T00:03:45.982Z,0
2018-09-07T00:04:55.605Z,0
2018-09-07T00:06:04.920Z,0
2018-09-07T00:07:15.029Z,0
2018-09-07T00:08:24.879Z,0
2018-09-07T00:09:34.995Z,0
2018-09-07T00:10:44.574Z,0
2018-09-07T00:11:54.155Z,0
2018-09-07T00:13:04.009Z,0
2018-09-07T00:14:13.315Z,0
2018-09-07T00:15:23.204Z,0
2018-09-07T00:16:32.775Z,0
2018-09-07T00:17:42.622Z,0
2018-09-07T00:18:52.485Z,0
2018-09-07T00:20:02.069Z,0
2018-09-07T00:21:11.649Z,0
2018-09-07T00:22:21.218Z,0
2018-09-07T00:23:31.329Z,0
2018-09-07T00:24:40.905Z,0
2018-09-07T00:25:50.750Z,0
2018-09-07T00:27:00.660Z,0
2018-09-07T00:28:10.272Z,0
2018-09-07T00:29:20.109Z,0
2018-09-07T00:30:29.685Z,0
2018-09-07T00:31:39.534Z,0
2018-09-07T00:32:49.108Z,0
2018-09-07T00:33:58.733Z,0
2018-09-07T00:35:08.310Z,0
2018-09-07T00:36:17.654Z,0
2018-09-07T00:37:26.962Z,0
2018-09-07T00:38:37.078Z,0
2018-09-07T00:39:47.200Z,0
2018-09-07T00:40:56.509Z,0
2018-09-07T00:42:06.376Z,0
2018-09-07T00:43:15.681Z,0
2018-09-07T00:44:25.260Z,0
2018-09-07T00:45:34.832Z,0
2018-09-07T00:46:44.674Z,0
2018-09-07T00:47:54.446Z,0
2018-09-07T00:49:04.012Z,0
2018-09-07T00:50:13.864Z,0
2018-09-07T00:51:23.441Z,0
2018-09-07T00:52:33.015Z,0
2018-09-07T00:53:43.133Z,0
2018-09-07T00:54:52.718Z,0
2018-09-07T00:56:02.642Z,0
2018-09-07T00:57:11.679Z,0
2018-09-07T00:58:20.982Z,0
2018-09-07T00:59:31.098Z,0
2018-09-07T01:00:40.677Z,0
2018-09-07T01:01:49.711Z,0
2018-09-07T01:02:59.828Z,0
2018-09-07T01:04:09.141Z,0
2018-09-07T01:05:19.252Z,0
2018-09-07T01:06:29.369Z,0
2018-09-07T01:07:39.336Z,0
2018-09-07T01:08:49.176Z,0
2018-09-07T01:09:59.289Z,0
2018-09-07T01:11:08.594Z,0
2018-09-07T01:12:17.900Z,0
2018-09-07T01:13:27.745Z,0
2018-09-07T01:14:37.583Z,0
2018-09-07T01:15:46.891Z,0
2018-09-07T01:16:56.445Z,0
2018-09-07T01:18:05.471Z,0
2018-09-07T01:19:15.590Z,0
2018-09-07T01:20:24.894Z,0
2018-09-07T01:21:34.739Z,0
2018-09-07T01:22:44.320Z,0
2018-09-07T01:23:53.894Z,0
2018-09-07T01:25:03.782Z,0
2018-09-07T01:26:13.887Z,0
2018-09-07T01:27:23.758Z,0
2018-09-07T01:28:33.600Z,0
2018-09-07T01:29:43.440Z,0
2018-09-07T01:30:53.069Z,0
2018-09-07T01:32:02.936Z,0
2018-09-07T01:33:12.511Z,0
2018-09-07T01:34:22.083Z,0
2018-09-07T01:35:31.671Z,0
2018-09-07T01:36:41.785Z,0
2018-09-07T01:37:51.912Z,0
2018-09-07T01:39:01.759Z,0
2018-09-07T01:40:11.342Z,0
2018-09-07T01:41:21.461Z,0
2018-09-07T01:42:31.307Z,0
2018-09-07T01:43:40.878Z,0
2018-09-07T01:44:50.451Z,0
2018-09-07T01:46:00.567Z,0
2018-09-07T01:47:10.140Z,0
2018-09-07T01:48:19.722Z,0
2018-09-07T01:49:29.317Z,0
2018-09-07T01:50:39.159Z,0
2018-09-07T01:51:48.733Z,0
2018-09-07T01:52:58.572Z,0
2018-09-07T01:54:08.154Z,0
2018-09-07T01:55:18.003Z,0
2018-09-07T01:56:27.856Z,0
2018-09-07T01:57:37.704Z,0
2018-09-07T01:58:47.544Z,0
2018-09-07T01:59:57.120Z,0
2018-09-07T02:01:06.941Z,0
2018-09-07T02:02:16.786Z,0
2018-09-07T02:03:26.360Z,0
2018-09-07T02:04:36.205Z,0
2018-09-07T02:05:45.515Z,0
2018-09-07T02:06:55.097Z,0
2018-09-07T02:08:04.940Z,0
2018-09-07T02:09:15.067Z,0
2018-09-07T02:10:24.679Z,0
2018-09-07T02:11:34.250Z,0
2018-09-07T02:12:44.093Z,0
2018-09-07T02:13:54.647Z,0
2018-09-07T02:15:04.231Z,0
2018-09-07T02:16:13.783Z,0
2018-09-07T02:17:23.704Z,0
2018-09-07T02:18:33.815Z,0
2018-09-07T02:19:43.387Z,0
2018-09-07T02:20:53.524Z,0
2018-09-07T02:22:03.651Z,0
2018-09-07T02:23:13.544Z,0
2018-09-07T02:24:22.880Z,0
2018-09-07T02:25:32.445Z,0
2018-09-07T02:26:42.558Z,0
2018-09-07T02:27:52.157Z,0
2018-09-07T02:29:01.736Z,0
2018-09-07T02:30:11.419Z,0
2018-09-07T02:31:21.507Z,0
2018-09-07T02:32:30.811Z,0
2018-09-07T02:33:40.123Z,0
2018-09-07T02:34:50.247Z,0
2018-09-07T02:36:00.101Z,0
2018-09-07T02:37:10.219Z,0
2018-09-07T02:38:19.830Z,0
2018-09-07T02:39:29.425Z,0
2018-09-07T02:40:39.277Z,0
2018-09-07T02:41:48.849Z,0
2018-09-07T02:42:58.701Z,0
2018-09-07T02:44:08.278Z,0
2018-09-07T02:45:18.136Z,0
2018-09-07T02:46:27.982Z,0
2018-09-07T02:47:37.830Z,0
2018-09-07T02:48:47.939Z,0
2018-09-07T02:49:56.980Z,0
2018-09-07T02:51:07.090Z,0
2018-09-07T02:52:16.930Z,0
2018-09-07T02:53:26.511Z,0
2018-09-07T02:54:36.620Z,0
2018-09-07T02:55:46.752Z,0
2018-09-07T02:56:56.604Z,0
2018-09-07T02:58:06.175Z,0
2018-09-07T02:59:16.025Z,0
2018-09-07T03:00:26.148Z,0
2018-09-07T03:01:35.735Z,0
2018-09-07T03:02:45.575Z,0
2018-09-07T03:03:55.156Z,0
2018-09-07T03:05:05.017Z,0
2018-09-07T03:06:14.330Z,0
2018-09-07T03:07:24.177Z,0
2018-09-07T03:08:34.287Z,0
2018-09-07T03:09:43.858Z,0
2018-09-07T03:10:53.429Z,0
2018-09-07T03:12:03.013Z,0
2018-09-07T03:13:13.133Z,0
2018-09-07T03:14:22.710Z,0
2018-09-07T03:15:31.741Z,0
2018-09-07T03:16:41.860Z,0
2018-09-07T03:17:51.709Z,0
2018-09-07T03:19:01.015Z,0
2018-09-07T03:20:10.604Z,0
2018-09-07T03:21:20.731Z,0
2018-09-07T03:22:30.033Z,0
2018-09-07T03:23:39.640Z,0
2018-09-07T03:24:49.752Z,0
2018-09-07T03:25:59.593Z,0
2018-09-07T03:27:09.434Z,0
2018-09-07T03:28:19.291Z,0
2018-09-07T03:29:29.138Z,0
2018-09-07T03:30:38.445Z,0
2018-09-07T03:31:48.296Z,0
2018-09-07T03:32:58.167Z,0
2018-09-07T03:34:07.740Z,0
2018-09-07T03:35:17.590Z,0
2018-09-07T03:36:27.725Z,0
2018-09-07T03:37:37.564Z,0
2018-09-07T03:38:47.145Z,0
2018-09-07T03:39:57.214Z,0
2018-09-07T03:41:06.250Z,0
2018-09-07T03:42:16.092Z,0
2018-09-07T03:43:26.037Z,0
2018-09-07T03:44:35.616Z,0
2018-09-07T03:45:45.734Z,0
2018-09-07T03:46:55.036Z,0
2018-09-07T03:48:05.159Z,0
2018-09-07T03:49:14.738Z,0
2018-09-07T03:50:24.579Z,0
2018-09-07T03:51:33.889Z,0
2018-09-07T03:52:43.464Z,0
2018-09-07T03:53:53.041Z,0
2018-09-07T03:55:02.882Z,0
2018-09-07T03:56:13.070Z,0
2018-09-07T03:57:22.909Z,0
2018-09-07T03:58:32.960Z,0
2018-09-07T03:59:42.259Z,0
2018-09-07T04:00:51.832Z,0
2018-09-07T04:02:01.182Z,0
2018-09-07T04:03:10.781Z,0
2018-09-07T04:04:20.895Z,0
2018-09-07T04:05:30.788Z,0
2018-09-07T04:06:40.364Z,0
2018-09-07T04:07:49.939Z,0
2018-09-07T04:08:59.784Z,0
2018-09-07T04:10:09.647Z,0
2018-09-07T04:11:19.701Z,0
2018-09-07T04:12:29.560Z,0
2018-09-07T04:13:39.419Z,0
2018-09-07T04:14:48.997Z,0
2018-09-07T04:15:58.853Z,0
2018-09-07T04:17:08.418Z,0
2018-09-07T04:18:18.263Z,0
2018-09-07T04:19:27.840Z,0
2018-09-07T04:20:37.142Z,0
2018-09-07T04:21:46.993Z,0
2018-09-07T04:22:55.763Z,0
2018-09-07T04:24:05.613Z,0
2018-09-07T04:25:15.472Z,0
2018-09-07T04:26:25.052Z,0
2018-09-07T04:27:34.621Z,0
2018-09-07T04:28:44.193Z,0
2018-09-07T04:29:54.036Z,0
2018-09-07T04:31:03.616Z,0
2018-09-07T04:32:12.915Z,0
2018-09-07T04:33:21.946Z,0
2018-09-07T04:34:31.284Z,0
2018-09-07T04:35:40.859Z,0
2018-09-07T04:36:50.738Z,0
2018-09-07T04:38:00.318Z,0
2018-09-07T04:39:09.889Z,0
2018-09-07T04:40:19.976Z,0
2018-09-07T04:41:30.100Z,0
2018-09-07T04:42:39.412Z,0
2018-09-07T04:43:49.526Z,0
2018-09-07T04:44:58.827Z,0
2018-09-07T04:46:07.869Z,0
2018-09-07T04:47:17.441Z,0
2018-09-07T04:48:27.459Z,0
2018-09-07T04:49:37.033Z,0
2018-09-07T04:50:46.601Z,0
2018-09-07T04:51:56.450Z,0
2018-09-07T04:53:06.324Z,0
2018-09-07T04:54:15.895Z,0
2018-09-07T04:55:25.469Z,0
2018-09-07T04:56:35.375Z,0
2018-09-07T04:57:45.223Z,0
2018-09-07T04:58:54.321Z,0
2018-09-07T05:00:04.219Z,0
2018-09-07T05:01:14.061Z,0
2018-09-07T05:02:23.900Z,0
2018-09-07T05:03:33.200Z,0
2018-09-07T05:04:42.512Z,0
2018-09-07T05:05:51.824Z,0
2018-09-07T05:07:01.405Z,0
2018-09-07T05:08:11.265Z,0
2018-09-07T05:09:21.117Z,0
2018-09-07T05:10:30.971Z,0
2018-09-07T05:11:40.543Z,0
2018-09-07T05:12:50.382Z,0
2018-09-07T05:14:00.225Z,0
2018-09-07T05:15:10.064Z,0
2018-09-07T05:16:19.918Z,0
2018-09-07T05:17:29.772Z,0
2018-09-07T05:18:39.611Z,0
2018-09-07T05:19:48.912Z,0
2018-09-07T05:20:58.497Z,0
2018-09-07T05:22:07.568Z,0
2018-09-07T05:23:18.178Z,0
2018-09-07T05:24:28.027Z,0
2018-09-07T05:25:37.871Z,0
2018-09-07T05:26:47.715Z,0
2018-09-07T05:27:57.287Z,0
2018-09-07T05:29:07.133Z,0
2018-09-07T05:30:17.263Z,0
2018-09-07T05:31:26.871Z,0
2018-09-07T05:32:37.055Z,0
2018-09-07T05:33:46.959Z,0
2018-09-07T05:34:56.850Z,0
2018-09-07T05:36:06.735Z,0
2018-09-07T05:37:16.887Z,0
2018-09-07T05:38:27.000Z,0
2018-09-07T05:39:36.404Z,0
2018-09-07T05:40:45.974Z,0
2018-09-07T05:41:55.546Z,0
2018-09-07T05:43:05.117Z,0
2018-09-07T05:44:14.707Z,0
2018-09-07T05:45:24.586Z,0
2018-09-07T05:46:34.716Z,0
2018-09-07T05:47:44.591Z,0
2018-09-07T05:48:54.714Z,0
2018-09-07T05:50:04.296Z,0
2018-09-07T05:51:13.600Z,0
2018-09-07T05:52:22.952Z,0
2018-09-07T05:53:32.038Z,0
2018-09-07T05:54:41.854Z,0
2018-09-07T05:55:51.692Z,0
2018-09-07T05:57:01.275Z,0
2018-09-07T05:58:11.394Z,0
2018-09-07T05:59:20.970Z,0
2018-09-07T06:00:30.838Z,0
2018-09-07T06:01:40.687Z,0
2018-09-07T06:02:50.528Z,0
2018-09-07T06:04:00.341Z,0
2018-09-07T06:05:10.185Z,0
2018-09-07T06:06:19.495Z,0
2018-09-07T06:07:29.376Z,0
2018-09-07T06:08:38.948Z,0
2018-09-07T06:09:49.064Z,0
2018-09-07T06:10:59.184Z,0
2018-09-07T06:12:09.027Z,0
2018-09-07T06:13:18.322Z,0
2018-09-07T06:14:27.897Z,0
2018-09-07T06:15:37.750Z,0
2018-09-07T06:16:47.884Z,0
2018-09-07T06:17:57.468Z,0
2018-09-07T06:19:06.875Z,0
2018-09-07T06:20:16.503Z,0
2018-09-07T06:21:26.354Z,0
2018-09-07T06:22:36.272Z,0
2018-09-07T06:23:46.556Z,0
2018-09-07T06:24:56.129Z,0
2018-09-07T06:26:05.165Z,0
2018-09-07T06:27:14.475Z,0
2018-09-07T06:28:24.322Z,0
2018-09-07T06:29:34.435Z,0
2018-09-07T06:30:44.010Z,0
2018-09-07T06:31:53.585Z,0
2018-09-07T06:33:03.869Z,0
2018-09-07T06:34:14.609Z,0
2018-09-07T06:35:24.486Z,0
2018-09-07T06:36:34.649Z,0
2018-09-07T06:37:44.524Z,0
2018-09-07T06:38:54.683Z,0
2018-09-07T06:40:04.217Z,0
2018-09-07T06:41:13.518Z,0
2018-09-07T06:42:23.097Z,0
2018-09-07T06:43:32.936Z,0
2018-09-07T06:44:43.046Z,0
2018-09-07T06:45:52.889Z,0
2018-09-07T06:47:02.770Z,0
2018-09-07T06:48:13.210Z,0
2018-09-07T06:49:22.513Z,0
2018-09-07T06:50:32.684Z,0
2018-09-07T06:51:41.956Z,0
2018-09-07T06:52:51.830Z,0
2018-09-07T06:54:01.880Z,0
2018-09-07T06:55:12.151Z,0
2018-09-07T06:56:21.472Z,0
2018-09-07T06:57:31.049Z,0
2018-09-07T06:58:40.632Z,0
2018-09-07T06:59:50.757Z,0
2018-09-07T07:01:00.596Z,0
2018-09-07T07:02:10.172Z,0
2018-09-07T07:03:20.015Z,0
2018-09-07T07:04:29.973Z,0
2018-09-07T07:05:39.825Z,0
2018-09-07T07:06:49.404Z,0
2018-09-07T07:07:58.995Z,0
2018-09-07T07:09:08.341Z,0
2018-09-07T07:10:17.734Z,0
2018-09-07T07:11:27.442Z,0
2018-09-07T07:12:37.040Z,0
2018-09-07T07:13:46.910Z,0
2018-09-07T07:14:56.779Z,0
2018-09-07T07:16:06.627Z,0
2018-09-07T07:17:16.746Z,0
2018-09-07T07:18:26.324Z,0
2018-09-07T07:19:35.907Z,0
2018-09-07T07:20:45.204Z,0
2018-09-07T07:21:55.055Z,0
2018-09-07T07:23:04.589Z,0
2018-09-07T07:24:14.453Z,0
2018-09-07T07:25:24.334Z,0
2018-09-07T07:26:33.911Z,0
2018-09-07T07:27:44.031Z,0
2018-09-07T07:28:53.603Z,0
2018-09-07T07:30:03.445Z,0
2018-09-07T07:31:12.754Z,0
2018-09-07T07:32:22.603Z,0
2018-09-07T07:33:32.765Z,0
2018-09-07T07:34:41.802Z,0
2018-09-07T07:35:51.445Z,0
2018-09-07T07:37:01.564Z,0
2018-09-07T07:38:11.251Z,0
2018-09-07T07:39:21.153Z,0.76
2018-09-07T07:40:30.727Z,6.42
2018-09-07T07:41:40.029Z,8.24
2018-09-07T07:42:49.602Z,9.87
2018-09-07T07:43:58.901Z,6.71
2018-09-07T07:45:07.713Z,11.21
2018-09-07T07:46:17.555Z,12.84
2018-09-07T07:47:27.127Z,14.76
2018-09-07T07:48:37.038Z,9.3
2018-09-07T07:49:46.879Z,12.46
2018-09-07T07:50:56.767Z,13.13
2018-09-07T07:52:06.907Z,17.25
2018-09-07T07:53:16.479Z,16
2018-09-07T07:54:26.599Z,17.82
2018-09-07T07:55:36.709Z,17.73
2018-09-07T07:56:46.388Z,18.98
2018-09-07T07:57:56.858Z,20.22
2018-09-07T07:59:06.984Z,20.32
2018-09-07T08:00:16.823Z,22.42
2018-09-07T08:01:26.663Z,25.2
2018-09-07T08:02:36.285Z,24.82
2018-09-07T08:03:46.391Z,24.91
2018-09-07T08:04:55.702Z,30
2018-09-07T08:06:05.010Z,31.92
2018-09-07T08:07:14.851Z,27.33
2018-09-07T08:08:24.691Z,30.57
2018-09-07T08:09:34.533Z,31.63
2018-09-07T08:10:43.864Z,38.72
2018-09-07T08:11:53.707Z,37.76
2018-09-07T08:13:03.285Z,39.77
2018-09-07T08:14:13.127Z,40.56
2018-09-07T08:15:23.240Z,39.6
2018-09-07T08:16:33.357Z,37.09
2018-09-07T08:17:43.211Z,38.14
2018-09-07T08:18:52.779Z,39.01
2018-09-07T08:20:02.622Z,40.27
2018-09-07T08:21:12.473Z,42.1
2018-09-07T08:22:21.502Z,41.52
2018-09-07T08:23:31.343Z,40.27
2018-09-07T08:24:40.915Z,36.53
2018-09-07T08:25:50.804Z,39.31
2018-09-07T08:27:00.382Z,39.5
2018-09-07T08:28:09.954Z,45.74
2018-09-07T08:29:20.076Z,46.22
2018-09-07T08:30:29.653Z,45.26
2018-09-07T08:31:39.764Z,45.83
2018-09-07T08:32:49.596Z,46.14
2018-09-07T08:33:59.792Z,46.34
2018-09-07T08:35:09.365Z,44.32
2018-09-07T08:36:19.202Z,48.64
2018-09-07T08:37:28.505Z,48.44
2018-09-07T08:38:37.811Z,50.84
2018-09-07T08:39:47.387Z,50.46
2018-09-07T08:40:57.400Z,49.69
2018-09-07T08:42:06.982Z,50.75
2018-09-07T08:43:16.552Z,53.34
2018-09-07T08:44:26.137Z,52.19
2018-09-07T08:45:35.706Z,51.78
2018-09-07T08:46:45.278Z,52.57
2018-09-07T08:47:55.393Z,52.95
2018-09-07T08:49:05.503Z,51.23
2018-09-07T08:50:15.625Z,49.69
2018-09-07T08:51:24.688Z,50.56
2018-09-07T08:52:34.261Z,52.86
2018-09-07T08:53:44.106Z,50.56
2018-09-07T08:54:53.795Z,51.23
2018-09-07T08:56:03.515Z,52.76
2018-09-07T08:57:13.367Z,53.53
2018-09-07T08:58:22.945Z,52.57
2018-09-07T08:59:32.519Z,54.49
2018-09-07T09:00:41.823Z,56.12
2018-09-07T09:01:51.672Z,50.08
2018-09-07T09:03:01.253Z,53.15
2018-09-07T09:04:10.876Z,52.38
2018-09-07T09:05:20.774Z,56.6
2018-09-07T09:06:30.967Z,55.96
2018-09-07T09:07:40.824Z,57.97
2018-09-07T09:08:50.409Z,52.98
2018-09-07T09:10:00.263Z,56.92
2018-09-07T09:11:09.836Z,56.34
2018-09-07T09:12:18.872Z,54.33
2018-09-07T09:13:28.711Z,55.96
2018-09-07T09:14:38.012Z,53.56
2018-09-07T09:15:48.165Z,58.48
2018-09-07T09:16:57.776Z,59.64
2018-09-07T09:18:07.627Z,62.04
2018-09-07T09:19:17.746Z,60.88
2018-09-07T09:20:27.854Z,61.27
2018-09-07T09:21:37.443Z,62.61
2018-09-07T09:22:47.290Z,64.92
2018-09-07T09:23:57.146Z,62.99
2018-09-07T09:25:07.185Z,65.11
2018-09-07T09:26:16.502Z,61.65
2018-09-07T09:27:25.805Z,65.59
2018-09-07T09:28:35.653Z,66.93
2018-09-07T09:29:45.576Z,67.22
2018-09-07T09:30:55.686Z,66.26
2018-09-07T09:32:05.260Z,65.97
2018-09-07T09:33:15.139Z,63.76
2018-09-07T09:34:25.256Z,65.59
2018-09-07T09:35:35.107Z,65.69
2018-09-07T09:36:44.954Z,67.51
2018-09-07T09:37:54.272Z,66.55
2018-09-07T09:39:03.852Z,67.51
2018-09-07T09:40:13.695Z,67.51
2018-09-07T09:41:23.309Z,68.37
2018-09-07T09:42:32.886Z,68.51
2018-09-07T09:43:43.002Z,68.12
2018-09-07T09:44:52.594Z,66.3
2018-09-07T09:46:01.630Z,68.66
2018-09-07T09:47:11.326Z,69.27
2018-09-07T09:48:21.054Z,69.66
2018-09-07T09:49:30.359Z,70.33
2018-09-07T09:50:39.937Z,70.43
2018-09-07T09:51:49.794Z,70.14
2018-09-07T09:52:59.646Z,70.72
2018-09-07T09:54:10.178Z,70.33
2018-09-07T09:55:20.035Z,66.97
2018-09-07T09:56:29.614Z,72.25
2018-09-07T09:57:38.924Z,69.89
2018-09-07T09:58:48.498Z,70.65
2018-09-07T09:59:58.077Z,71.42
2018-09-07T10:01:07.657Z,72
2018-09-07T10:02:17.243Z,73.15
2018-09-07T10:03:26.614Z,73.35
2018-09-07T10:04:36.473Z,74.02
2018-09-07T10:05:46.125Z,72.29
2018-09-07T10:06:55.762Z,74.6
2018-09-07T10:08:05.076Z,74.6
2018-09-07T10:09:14.921Z,73.83
2018-09-07T10:10:24.565Z,73.92
2018-09-07T10:11:34.405Z,73.35
2018-09-07T10:12:44.259Z,74.5
2018-09-07T10:13:54.110Z,72.48
2018-09-07T10:15:04.007Z,72.96
2018-09-07T10:16:13.854Z,73.35
2018-09-07T10:17:23.698Z,72.09
2018-09-07T10:18:33.544Z,70.46
2018-09-07T10:19:43.393Z,73.73
2018-09-07T10:20:52.974Z,73.83
2018-09-07T10:22:02.557Z,73.25
2018-09-07T10:23:12.149Z,75.32
2018-09-07T10:24:21.737Z,67.93
2018-09-07T10:25:31.728Z,73.79
2018-09-07T10:26:41.619Z,73.98
2018-09-07T10:27:51.517Z,72.44
2018-09-07T10:29:01.369Z,69.37
2018-09-07T10:30:10.952Z,68.21
2018-09-07T10:31:20.803Z,65.81
2018-09-07T10:32:30.647Z,63.38
2018-09-07T10:33:40.493Z,61.08
2018-09-07T10:34:50.643Z,60.02
2018-09-07T10:36:00.214Z,57.71
2018-09-07T10:37:09.793Z,57.33
2018-09-07T10:38:19.367Z,57.43
2018-09-07T10:39:29.215Z,59.34
2018-09-07T10:40:38.846Z,57.9
2018-09-07T10:41:48.703Z,55.47
2018-09-07T10:42:58.550Z,55.89
2018-09-07T10:44:08.518Z,56.27
2018-09-07T10:45:18.527Z,56.95
2018-09-07T10:46:28.376Z,56.56
2018-09-07T10:47:38.225Z,55.6
2018-09-07T10:48:48.075Z,57.71
2018-09-07T10:49:58.270Z,57.9
2018-09-07T10:51:08.191Z,56.27
2018-09-07T10:52:18.037Z,62.42
2018-09-07T10:53:28.177Z,62.61
2018-09-07T10:54:38.022Z,61.17
2018-09-07T10:55:48.133Z,59.16
2018-09-07T10:56:57.705Z,60.31
2018-09-07T10:58:07.291Z,60.88
2018-09-07T10:59:17.379Z,59.06
2018-09-07T11:00:27.660Z,61.65
2018-09-07T11:01:37.554Z,59.34
2018-09-07T11:02:47.138Z,55.79
2018-09-07T11:03:56.993Z,61.3
2018-09-07T11:05:07.142Z,59.64
2018-09-07T11:06:17.256Z,61.84
2018-09-07T11:07:26.559Z,62.32
2018-09-07T11:08:36.401Z,61.46
2018-09-07T11:09:45.977Z,64.92
2018-09-07T11:10:55.549Z,63.57
2018-09-07T11:12:05.397Z,62.13
2018-09-07T11:13:14.971Z,66.07
2018-09-07T11:14:24.555Z,64.82
2018-09-07T11:15:34.170Z,64.82
2018-09-07T11:16:43.752Z,60.31
2018-09-07T11:17:53.059Z,62.99
2018-09-07T11:19:02.913Z,60.98
2018-09-07T11:20:12.758Z,61.75
2018-09-07T11:21:22.340Z,61.08
2018-09-07T11:22:31.916Z,61.08
2018-09-07T11:23:41.765Z,60.18
2018-09-07T11:24:50.808Z,59.16
2018-09-07T11:26:00.108Z,58.67
2018-09-07T11:27:09.971Z,60.21
2018-09-07T11:28:19.820Z,58.64
2018-09-07T11:29:29.400Z,58.26
2018-09-07T11:30:38.739Z,57.68
2018-09-07T11:31:48.873Z,57.97
2018-09-07T11:32:58.456Z,55.57
2018-09-07T11:34:08.296Z,54.61
2018-09-07T11:35:17.870Z,56.05
2018-09-07T11:36:27.192Z,52.89
2018-09-07T11:37:36.818Z,55.29
2018-09-07T11:38:46.410Z,53.94
2018-09-07T11:39:56.282Z,55.57
2018-09-07T11:41:06.250Z,57.97
2018-09-07T11:42:16.820Z,56.82
2018-09-07T11:43:26.984Z,60.57
2018-09-07T11:44:36.833Z,58.45
2018-09-07T11:45:46.683Z,57.78
2018-09-07T11:46:56.316Z,57.08
2018-09-07T11:48:06.158Z,55.83
2018-09-07T11:49:16.412Z,56.53
2018-09-07T11:50:26.889Z,57.11
2018-09-07T11:51:37.002Z,56.05
2018-09-07T11:52:47.125Z,54.61
2018-09-07T11:53:56.711Z,52.79
2018-09-07T11:55:06.295Z,53.08
2018-09-07T11:56:16.406Z,53.27
2018-09-07T11:57:25.991Z,54.9
2018-09-07T11:58:35.569Z,55.86
2018-09-07T11:59:45.452Z,55.57
2018-09-07T12:00:55.583Z,56.24
2018-09-07T12:02:05.229Z,58.36
2018-09-07T12:03:15.636Z,58.42
2018-09-07T12:04:25.895Z,59.77
2018-09-07T12:05:36.400Z,57.08
2018-09-07T12:06:46.523Z,58.62
2018-09-07T12:07:56.104Z,58.42
2018-09-07T12:09:05.676Z,57.75
2018-09-07T12:10:15.524Z,61.91
2018-09-07T12:11:25.101Z,61.62
2018-09-07T12:12:35.434Z,61.14
2018-09-07T12:13:46.007Z,61.91
2018-09-07T12:14:56.119Z,61.81
2018-09-07T12:16:05.702Z,60.08
2018-09-07T12:17:15.325Z,57.59
2018-09-07T12:18:25.797Z,54.88
2018-09-07T12:19:35.642Z,57.95
2018-09-07T12:20:45.239Z,55.93
2018-09-07T12:21:55.377Z,57.28
2018-09-07T12:23:04.981Z,56.79
2018-09-07T12:24:14.831Z,55.55
2018-09-07T12:25:24.682Z,56.6
2018-09-07T12:26:34.802Z,56.79
2018-09-07T12:27:44.376Z,54.11
2018-09-07T12:28:54.510Z,45.86
2018-09-07T12:30:03.820Z,42.29
2018-09-07T12:31:13.389Z,40.08
2018-09-07T12:32:23.505Z,35.77
2018-09-07T12:33:32.813Z,34.81
2018-09-07T12:34:42.493Z,33.65
2018-09-07T12:35:52.991Z,33.65
2018-09-07T12:37:02.577Z,32.79
2018-09-07T12:38:11.883Z,28.94
2018-09-07T12:39:21.189Z,29.52
2018-09-07T12:40:30.758Z,29.33
2018-09-07T12:41:40.939Z,26.65
2018-09-07T12:42:50.817Z,24.07
2018-09-07T12:44:00.941Z,24.26
2018-09-07T12:45:10.784Z,29.24
2018-09-07T12:46:20.372Z,29.53
2018-09-07T12:47:30.219Z,29.63
2018-09-07T12:48:39.935Z,29.15
2018-09-07T12:49:49.832Z,29.24
2018-09-07T12:50:59.676Z,27.42
2018-09-07T12:52:09.229Z,28.48
2018-09-07T12:53:18.815Z,29.53
2018-09-07T12:54:28.132Z,30.49
2018-09-07T12:55:37.713Z,32.03
2018-09-07T12:56:47.828Z,31.74
2018-09-07T12:57:57.408Z,30.49
2018-09-07T12:59:06.978Z,28.09
2018-09-07T13:00:16.551Z,30.97
2018-09-07T13:01:26.717Z,33.17
2018-09-07T13:02:36.732Z,33.09
2018-09-07T13:03:46.851Z,33.48
2018-09-07T13:04:56.218Z,33.48
2018-09-07T13:06:06.072Z,33.19
2018-09-07T13:07:15.103Z,33.67
2018-09-07T13:08:25.442Z,36.84
2018-09-07T13:09:34.673Z,37.03
2018-09-07T13:10:44.318Z,39.04
2018-09-07T13:11:54.441Z,39.53
2018-09-07T13:13:04.026Z,40
2018-09-07T13:14:13.869Z,40.2
2018-09-07T13:15:23.713Z,43.46
2018-09-07T13:16:33.287Z,43.57
2018-09-07T13:17:43.132Z,42.61
2018-09-07T13:18:52.710Z,45.3
2018-09-07T13:20:03.069Z,47.71
2018-09-07T13:21:12.371Z,48.66
2018-09-07T13:22:22.224Z,50.01
2018-09-07T13:23:32.067Z,49.82
2018-09-07T13:24:42.176Z,50.1
2018-09-07T13:25:52.293Z,49.82
2018-09-07T13:27:02.433Z,49.33
2018-09-07T13:28:12.041Z,49.62
2018-09-07T13:29:21.354Z,50.87
2018-09-07T13:30:30.932Z,51.35
2018-09-07T13:31:40.784Z,54.35
2018-09-07T13:32:50.085Z,58.2
2018-09-07T13:34:00.231Z,61.27
2018-09-07T13:35:10.075Z,64.72
2018-09-07T13:36:19.917Z,62.23
2018-09-07T13:37:29.496Z,65.01
2018-09-07T13:38:39.107Z,64.53
2018-09-07T13:39:49.001Z,64.63
2018-09-07T13:40:58.852Z,66.97
2018-09-07T13:42:08.989Z,68.31
2018-09-07T13:43:18.836Z,70.39
2018-09-07T13:44:28.744Z,69.05
2018-09-07T13:45:38.362Z,68.66
2018-09-07T13:46:48.252Z,69.81
2018-09-07T13:47:58.182Z,69.72
2018-09-07T13:49:07.758Z,69.53
2018-09-07T13:50:17.892Z,69.91
2018-09-07T13:51:27.741Z,70.29
2018-09-07T13:52:37.585Z,69.34
2018-09-07T13:53:47.428Z,70.78
2018-09-07T13:54:57.788Z,71.41
2018-09-07T13:56:07.484Z,70.07
2018-09-07T13:57:16.789Z,67.57
2018-09-07T13:58:26.094Z,68.05
2018-09-07T13:59:35.695Z,62.93
2018-09-07T14:00:45.537Z,65.62
2018-09-07T14:01:55.111Z,63.99
2018-09-07T14:03:04.150Z,65.72
2018-09-07T14:04:13.990Z,63.51
2018-09-07T14:05:23.856Z,65.33
2018-09-07T14:06:33.702Z,64.28
2018-09-07T14:07:43.823Z,62.42
2018-09-07T14:08:53.418Z,62.65
2018-09-07T14:10:02.993Z,61.75
2018-09-07T14:11:12.562Z,60.82
2018-09-07T14:12:21.867Z,56.76
2018-09-07T14:13:31.172Z,56.09
2018-09-07T14:14:40.749Z,55.8
2018-09-07T14:15:51.024Z,56.38
2018-09-07T14:17:01.469Z,52.93
2018-09-07T14:18:11.582Z,54.27
2018-09-07T14:19:21.205Z,52.07
2018-09-07T14:20:31.049Z,51.01
2018-09-07T14:21:41.023Z,49.57
2018-09-07T14:22:50.817Z,51.4
2018-09-07T14:24:00.393Z,53.6
2018-09-07T14:25:10.291Z,54.37
2018-09-07T14:26:20.136Z,56.16
2018-09-07T14:27:29.708Z,60.76
2018-09-07T14:28:39.008Z,61.82
2018-09-07T14:29:49.120Z,58.94
2018-09-07T14:30:58.963Z,65.65
2018-09-07T14:32:09.079Z,65.26
2018-09-07T14:33:18.935Z,63.54
2018-09-07T14:34:28.237Z,64.22
2018-09-07T14:35:38.084Z,64.59
2018-09-07T14:36:47.933Z,63.6
2018-09-07T14:37:57.505Z,61.69
2018-09-07T14:39:06.810Z,60.73
2018-09-07T14:40:16.917Z,63.8
2018-09-07T14:41:27.034Z,63.8
2018-09-07T14:42:37.199Z,64.5
2018-09-07T14:43:47.320Z,64.4
2018-09-07T14:44:56.894Z,68.46
2018-09-07T14:46:06.749Z,70.86
2018-09-07T14:47:16.600Z,71.66
2018-09-07T14:48:25.645Z,73.97
2018-09-07T14:49:35.504Z,73.87
2018-09-07T14:50:45.093Z,73.81
2018-09-07T14:51:54.130Z,76.21
2018-09-07T14:53:03.980Z,79.76
2018-09-07T14:54:13.301Z,81.4
2018-09-07T14:55:23.161Z,81.1
2018-09-07T14:56:33.296Z,80.38
2018-09-07T14:57:42.879Z,81.43
2018-09-07T14:58:52.722Z,82.07
2018-09-07T15:00:02.297Z,81.87
2018-09-07T15:01:11.876Z,82.07
2018-09-07T15:02:21.456Z,83.41
2018-09-07T15:03:31.032Z,84.22
2018-09-07T15:04:40.904Z,83.74
2018-09-07T15:05:50.804Z,82.3
2018-09-07T15:07:00.651Z,83.36
2018-09-07T15:08:10.229Z,84.51
2018-09-07T15:09:20.395Z,82.84
2018-09-07T15:10:30.021Z,84.47
2018-09-07T15:11:40.061Z,84.22
2018-09-07T15:12:50.045Z,83.84
2018-09-07T15:13:59.354Z,84.22
2018-09-07T15:15:08.932Z,83.84
2018-09-07T15:16:18.778Z,84.22
2018-09-07T15:17:28.899Z,84.51
2018-09-07T15:18:38.749Z,85.51
2018-09-07T15:19:48.328Z,84.17
2018-09-07T15:20:57.907Z,85.22
2018-09-07T15:22:07.759Z,85.22
2018-09-07T15:23:17.070Z,85.46
2018-09-07T15:24:26.656Z,85.36
2018-09-07T15:25:36.509Z,85.98
2018-09-07T15:26:46.092Z,87.81
2018-09-07T15:27:55.940Z,87.62
2018-09-07T15:29:05.569Z,87.38
2018-09-07T15:30:15.698Z,87.48
2018-09-07T15:31:25.288Z,87.13
2018-09-07T15:32:34.867Z,87.23
2018-09-07T15:33:44.445Z,86.75
2018-09-07T15:34:54.305Z,87.76
2018-09-07T15:36:03.895Z,86.31
2018-09-07T15:37:13.475Z,85.83
2018-09-07T15:38:23.321Z,86.02
2018-09-07T15:39:33.180Z,86.02
2018-09-07T15:40:43.305Z,87.08
2018-09-07T15:41:52.883Z,85.97
2018-09-07T15:43:03.046Z,84.91
2018-09-07T15:44:13.171Z,84.86
2018-09-07T15:45:23.025Z,84.23
2018-09-07T15:46:33.419Z,83.56
2018-09-07T15:47:43.008Z,83.95
2018-09-07T15:48:52.893Z,83.61
2018-09-07T15:50:03.089Z,82.06
2018-09-07T15:51:12.407Z,82.06
2018-09-07T15:52:22.602Z,82.1
2018-09-07T15:53:32.539Z,80.46
2018-09-07T15:54:42.139Z,79.02
2018-09-07T15:55:51.988Z,78.98
2018-09-07T15:57:01.569Z,79.85
2018-09-07T15:58:11.423Z,79.17
2018-09-07T15:59:21.551Z,79.17